createdAt,value
2022-11-17T00:01:37.576Z,98436.00
2022-11-17T00:04:06.368Z,98438.75
2022-11-17T00:06:34.645Z,98431.63
2022-11-17T00:09:02.807Z,98425.31
2022-11-17T00:11:54.336Z,98432.44
2022-11-17T00:14:36.695Z,98442.97
2022-11-17T00:17:08.823Z,98440.22
2022-11-17T00:19:56.514Z,98443.44
2022-11-17T00:22:25.567Z,98448.00
2022-11-17T00:24:53.832Z,98447.50
2022-11-17T00:27:21.904Z,98453.34
2022-11-17T00:29:50.646Z,98443.28
2022-11-17T00:32:38.366Z,98427.75
2022-11-17T00:35:07.362Z,98427.28
2022-11-17T00:38:00.102Z,98439.22
2022-11-17T00:40:28.693Z,98435.84
2022-11-17T00:42:56.822Z,98440.69
2022-11-17T00:45:24.919Z,98428.41
2022-11-17T00:47:53.752Z,98430.50
2022-11-17T00:50:21.891Z,98432.44
2022-11-17T00:52:50.090Z,98440.38
2022-11-17T00:55:18.652Z,98429.69
2022-11-17T00:57:46.868Z,98433.06
2022-11-17T01:00:15.957Z,98431.47
2022-11-17T01:02:44.523Z,98424.19
2022-11-17T01:05:12.750Z,98428.25
2022-11-17T01:07:40.760Z,98421.94
2022-11-17T01:10:09.517Z,98413.66
2022-11-17T01:12:37.679Z,98421.59
2022-11-17T01:15:06.271Z,98418.66
2022-11-17T01:17:34.712Z,98402.50
2022-11-17T01:20:02.886Z,98403.62
2022-11-17T01:22:31.142Z,98399.09
2022-11-17T01:24:59.475Z,98392.16
2022-11-17T01:27:27.559Z,98394.72
2022-11-17T01:29:55.749Z,98382.12
2022-11-17T01:32:24.512Z,98394.22
2022-11-17T01:34:52.566Z,98383.72
2022-11-17T01:37:20.699Z,98391.31
2022-11-17T01:39:50.583Z,98388.44
2022-11-17T01:42:24.730Z,98390.53
2022-11-17T01:45:00.765Z,98386.97
2022-11-17T01:47:55.026Z,98392.31
2022-11-17T01:50:40.790Z,98382.25
2022-11-17T01:53:11.125Z,98366.09
2022-11-17T01:55:49.617Z,98387.28
2022-11-17T01:58:33.752Z,98384.72
2022-11-17T02:01:02.439Z,98393.09
2022-11-17T02:03:34.700Z,98398.13
2022-11-17T02:06:07.160Z,98390.53
2022-11-17T02:08:39.195Z,98405.09
2022-11-17T02:11:14.963Z,98403.13
2022-11-17T02:13:43.345Z,98402.34
2022-11-17T02:16:13.590Z,98402.00
2022-11-17T02:18:43.522Z,98399.41
2022-11-17T02:21:34.145Z,98393.91
2022-11-17T02:24:39.853Z,98398.13
2022-11-17T02:27:35.427Z,98404.25
2022-11-17T02:30:11.972Z,98403.28
2022-11-17T02:33:00.964Z,98404.41
2022-11-17T02:35:57.924Z,98399.25
2022-11-17T02:38:35.142Z,98393.59
2022-11-17T02:41:45.359Z,98390.84
2022-11-17T02:44:29.329Z,98379.53
2022-11-17T02:47:08.749Z,98366.88
2022-11-17T02:49:41.499Z,98371.75
2022-11-17T02:52:10.359Z,98373.06
2022-11-17T02:54:39.078Z,98377.06
2022-11-17T02:57:31.150Z,98377.91
2022-11-17T03:00:04.591Z,98370.47
2022-11-17T03:03:02.305Z,98367.88
2022-11-17T03:05:55.375Z,98354.94
2022-11-17T03:08:51.980Z,98367.72
2022-11-17T03:11:28.893Z,98363.97
2022-11-17T03:14:19.687Z,98374.00
2022-11-17T03:17:03.137Z,98364.13
2022-11-17T03:20:10.191Z,98347.97
2022-11-17T03:22:43.239Z,98339.69
2022-11-17T03:25:17.839Z,98342.13
2022-11-17T03:27:50.860Z,98345.84
2022-11-17T03:30:21.255Z,98348.09
2022-11-17T03:32:54.058Z,98340.19
2022-11-17T03:35:27.665Z,98347.44
2022-11-17T03:38:04.517Z,98341.63
2022-11-17T03:40:35.202Z,98358.28
2022-11-17T03:43:07.855Z,98367.16
2022-11-17T03:45:40.237Z,98367.81
2022-11-17T03:48:13.043Z,98360.38
2022-11-17T03:50:46.704Z,98358.78
2022-11-17T03:53:15.450Z,98371.03
2022-11-17T03:56:09.718Z,98365.84
2022-11-17T03:58:46.674Z,98381.03
2022-11-17T04:01:15.446Z,98388.31
2022-11-17T04:03:44.185Z,98394.56
2022-11-17T04:06:13.073Z,98381.28
2022-11-17T04:08:41.263Z,98378.53
2022-11-17T04:11:28.358Z,98391.63
2022-11-17T04:14:15.451Z,98386.31
2022-11-17T04:16:43.860Z,98380.16
2022-11-17T04:19:11.952Z,98375.78
2022-11-17T04:21:40.469Z,98364.19
2022-11-17T04:24:09.234Z,98382.16
2022-11-17T04:26:55.873Z,98376.31
2022-11-17T04:29:24.284Z,98370.81
2022-11-17T04:31:52.282Z,98374.22
2022-11-17T04:34:20.680Z,98375.78
2022-11-17T04:36:49.047Z,98365.94
2022-11-17T04:39:17.119Z,98376.72
2022-11-17T04:41:54.583Z,98374.12
2022-11-17T04:44:31.465Z,98367.03
2022-11-17T04:47:03.383Z,98374.56
2022-11-17T04:49:32.596Z,98376.16
2022-11-17T04:52:01.240Z,98382.31
2022-11-17T04:54:29.395Z,98398.50
2022-11-17T04:56:57.885Z,98401.31
2022-11-17T04:59:26.122Z,98409.06
2022-11-17T05:01:54.428Z,98410.00
2022-11-17T05:04:41.557Z,98412.94
2022-11-17T05:07:09.880Z,98398.25
2022-11-17T05:09:38.298Z,98396.16
2022-11-17T05:12:25.394Z,98394.88
2022-11-17T05:14:54.780Z,98410.25
2022-11-17T05:17:22.879Z,98414.41
2022-11-17T05:19:51.181Z,98409.09
2022-11-17T05:22:42.251Z,98405.69
2022-11-17T05:25:10.916Z,98413.63
2022-11-17T05:27:39.356Z,98419.12
2022-11-17T05:30:09.145Z,98397.31
2022-11-17T05:32:37.288Z,98414.59
2022-11-17T05:35:06.145Z,98398.44
2022-11-17T05:37:34.228Z,98409.41
2022-11-17T05:40:02.364Z,98411.72
2022-11-17T05:42:30.867Z,98410.13
2022-11-17T05:44:58.887Z,98414.47
2022-11-17T05:47:27.175Z,98414.94
2022-11-17T05:49:55.676Z,98413.47
2022-11-17T05:52:24.055Z,98414.91
2022-11-17T05:54:52.173Z,98423.63
2022-11-17T05:57:28.465Z,98422.34
2022-11-17T06:00:01.602Z,98435.91
2022-11-17T06:02:38.682Z,98418.56
2022-11-17T06:05:08.248Z,98431.22
2022-11-17T06:07:37.169Z,98427.62
2022-11-17T06:10:06.269Z,98439.75
2022-11-17T06:12:34.818Z,98436.81
2022-11-17T06:15:03.582Z,98440.34
2022-11-17T06:17:52.561Z,98443.94
2022-11-17T06:20:28.528Z,98444.50
2022-11-17T06:23:00.317Z,98445.53
2022-11-17T06:25:29.165Z,98451.78
2022-11-17T06:27:58.794Z,98440.91
2022-11-17T06:30:27.385Z,98451.88
2022-11-17T06:32:57.400Z,98451.22
2022-11-17T06:35:25.578Z,98464.03
2022-11-17T06:37:54.497Z,98453.09
2022-11-17T06:40:22.970Z,98460.59
2022-11-17T06:43:09.689Z,98459.53
2022-11-17T06:45:45.944Z,98462.97
2022-11-17T06:48:16.315Z,98451.34
2022-11-17T06:50:45.021Z,98468.37
2022-11-17T06:53:13.200Z,98451.88
2022-11-17T06:55:41.974Z,98461.09
2022-11-17T06:58:13.418Z,98458.31
2022-11-17T07:00:41.852Z,98452.28
2022-11-17T07:03:10.956Z,98453.28
2022-11-17T07:05:40.423Z,98465.09
2022-11-17T07:08:09.441Z,98465.62
2022-11-17T07:10:38.427Z,98461.41
2022-11-17T07:13:07.128Z,98459.16
2022-11-17T07:15:35.401Z,98458.19
2022-11-17T07:18:03.804Z,98460.28
2022-11-17T07:20:32.402Z,98458.81
2022-11-17T07:23:00.580Z,98455.41
2022-11-17T07:25:28.745Z,98459.09
2022-11-17T07:28:00.469Z,98450.66
2022-11-17T07:30:29.199Z,98453.06
2022-11-17T07:33:01.183Z,98449.97
2022-11-17T07:35:29.624Z,98443.91
2022-11-17T07:37:59.708Z,98438.94
2022-11-17T07:40:29.007Z,98434.41
2022-11-17T07:42:57.438Z,98444.44
2022-11-17T07:45:31.382Z,98449.13
2022-11-17T07:48:02.356Z,98441.88
2022-11-17T07:50:30.965Z,98451.00
2022-11-17T07:52:59.252Z,98448.13
2022-11-17T07:55:28.034Z,98444.75
2022-11-17T07:58:01.100Z,98448.13
2022-11-17T08:00:30.935Z,98448.47
2022-11-17T08:03:04.264Z,98446.19
2022-11-17T08:05:41.632Z,98450.09
2022-11-17T08:08:14.153Z,98449.47
2022-11-17T08:10:43.251Z,98463.03
2022-11-17T08:13:12.934Z,98458.66
2022-11-17T08:15:43.769Z,98470.47
2022-11-17T08:18:12.232Z,98463.66
2022-11-17T08:20:40.334Z,98467.22
2022-11-17T08:23:08.495Z,98483.72
2022-11-17T08:25:36.931Z,98480.22
2022-11-17T08:28:05.121Z,98480.75
2022-11-17T08:30:35.583Z,98477.00
2022-11-17T08:33:04.135Z,98495.72
2022-11-17T08:35:37.497Z,98495.41
2022-11-17T08:38:06.971Z,98489.25
2022-11-17T08:40:35.159Z,98491.06
2022-11-17T08:43:03.319Z,98494.28
2022-11-17T08:45:32.123Z,98501.09
2022-11-17T08:48:00.597Z,98501.84
2022-11-17T08:50:28.743Z,98507.59
2022-11-17T08:52:57.300Z,98511.81
2022-11-17T08:55:26.458Z,98517.75
2022-11-17T08:57:54.893Z,98525.03
2022-11-17T09:00:23.928Z,98519.81
2022-11-17T09:02:52.033Z,98534.75
2022-11-17T09:05:21.077Z,98539.13
2022-11-17T09:07:50.117Z,98532.97
2022-11-17T09:10:18.615Z,98538.72
2022-11-17T09:12:46.686Z,98538.37
2022-11-17T09:15:15.254Z,98541.25
2022-11-17T09:17:47.769Z,98544.41
2022-11-17T09:20:17.917Z,98551.25
2022-11-17T09:22:46.646Z,98552.03
2022-11-17T09:25:14.989Z,98549.28
2022-11-17T09:27:43.791Z,98556.84
2022-11-17T09:30:12.207Z,98551.38
2022-11-17T09:32:40.259Z,98555.44
2022-11-17T09:35:09.575Z,98552.19
2022-11-17T09:37:37.701Z,98557.50
2022-11-17T09:40:06.707Z,98552.41
2022-11-17T09:42:40.173Z,98552.69
2022-11-17T09:45:23.105Z,98547.06
2022-11-17T09:48:33.573Z,98542.56
2022-11-17T09:50:56.809Z,98549.47
2022-11-17T09:53:53.517Z,98538.72
2022-11-17T09:56:22.157Z,98543.34
2022-11-17T09:59:05.241Z,98544.06
2022-11-17T10:01:33.290Z,98528.16
2022-11-17T10:04:01.833Z,98530.28
2022-11-17T10:06:31.395Z,98521.94
2022-11-17T10:09:27.839Z,98526.41
2022-11-17T10:12:10.086Z,98516.47
2022-11-17T10:14:40.742Z,98519.47
2022-11-17T10:17:09.812Z,98515.44
2022-11-17T10:19:39.704Z,98518.84
2022-11-17T10:22:07.796Z,98512.81
2022-11-17T10:24:47.739Z,98519.16
2022-11-17T10:27:22.569Z,98534.53
2022-11-17T10:30:02.666Z,98539.38
2022-11-17T10:32:36.387Z,98534.69
2022-11-17T10:35:18.607Z,98539.19
2022-11-17T10:38:01.862Z,98540.81
2022-11-17T10:40:32.359Z,98547.94
2022-11-17T10:43:12.213Z,98537.66
2022-11-17T10:45:52.776Z,98545.94
2022-11-17T10:48:32.889Z,98539.56
2022-11-17T10:51:09.589Z,98541.62
2022-11-17T10:53:45.776Z,98533.38
2022-11-17T10:56:25.016Z,98534.50
2022-11-17T10:58:53.039Z,98542.16
2022-11-17T11:01:35.908Z,98542.78
2022-11-17T11:04:07.377Z,98537.78
2022-11-17T11:06:35.880Z,98541.19
2022-11-17T11:09:14.277Z,98542.69
2022-11-17T11:11:51.235Z,98538.47
2022-11-17T11:14:40.573Z,98530.09
2022-11-17T11:17:17.627Z,98533.41
2022-11-17T11:19:53.490Z,98534.75
2022-11-17T11:22:34.307Z,98537.25
2022-11-17T11:25:36.509Z,98537.72
2022-11-17T11:28:26.474Z,98537.72
2022-11-17T11:31:32.998Z,98531.63
2022-11-17T11:34:34.591Z,98532.13
2022-11-17T11:37:11.904Z,98519.22
2022-11-17T11:40:21.886Z,98534.03
2022-11-17T11:43:05.090Z,98550.66
2022-11-17T11:45:39.863Z,98550.12
2022-11-17T11:48:11.046Z,98537.63
2022-11-17T11:50:53.544Z,98547.34
2022-11-17T11:53:46.442Z,98530.22
2022-11-17T11:56:30.619Z,98526.00
2022-11-17T11:59:07.120Z,98517.94
2022-11-17T12:02:11.938Z,98508.66
2022-11-17T12:04:43.372Z,98519.94
2022-11-17T12:07:20.423Z,98532.66
2022-11-17T12:10:11.175Z,98528.28
2022-11-17T12:12:40.809Z,98535.81
2022-11-17T12:15:29.169Z,98527.12
2022-11-17T12:18:05.055Z,98542.56
2022-11-17T12:20:39.275Z,98537.28
2022-11-17T12:23:10.105Z,98537.56
2022-11-17T12:25:50.637Z,98539.53
2022-11-17T12:28:41.991Z,98536.31
2022-11-17T12:31:43.499Z,98539.00
2022-11-17T12:35:03.914Z,98534.47
2022-11-17T12:37:32.534Z,98553.06
2022-11-17T12:40:23.389Z,98550.16
2022-11-17T12:43:16.790Z,98540.03
2022-11-17T12:45:53.602Z,98545.06
2022-11-17T12:48:33.924Z,98540.09
2022-11-17T12:51:27.407Z,98546.94
2022-11-17T12:54:14.889Z,98541.78
2022-11-17T12:56:46.005Z,98545.28
2022-11-17T12:59:35.942Z,98541.78
2022-11-17T13:02:10.216Z,98542.78
2022-11-17T13:04:39.321Z,98540.19
2022-11-17T13:07:16.998Z,98538.44
2022-11-17T13:09:50.797Z,98541.75
2022-11-17T13:12:24.580Z,98546.91
2022-11-17T13:14:57.137Z,98541.09
2022-11-17T13:17:30.873Z,98555.53
2022-11-17T13:20:17.649Z,98559.13
2022-11-17T13:23:04.508Z,98570.78
2022-11-17T13:25:34.227Z,98560.69
2022-11-17T13:28:05.095Z,98566.56
2022-11-17T13:30:34.049Z,98565.38
2022-11-17T13:33:04.012Z,98562.34
2022-11-17T13:35:35.186Z,98563.28
2022-11-17T13:38:24.686Z,98569.00
2022-11-17T13:40:53.757Z,98570.63
2022-11-17T13:43:24.120Z,98573.94
2022-11-17T13:45:54.333Z,98572.19
2022-11-17T13:48:50.264Z,98581.44
2022-11-17T13:51:35.241Z,98586.84
2022-11-17T13:54:15.584Z,98589.34
2022-11-17T13:56:46.783Z,98582.81
2022-11-17T13:59:21.126Z,98573.25
2022-11-17T14:01:49.379Z,98569.03
2022-11-17T14:04:21.602Z,98575.41
2022-11-17T14:06:56.233Z,98569.56
2022-11-17T14:09:26.518Z,98586.13
2022-11-17T14:11:55.751Z,98582.78
2022-11-17T14:14:42.177Z,98574.34
2022-11-17T14:17:13.576Z,98581.31
2022-11-17T14:19:41.861Z,98585.88
2022-11-17T14:22:10.827Z,98580.72
2022-11-17T14:24:41.575Z,98584.97
2022-11-17T14:27:31.930Z,98577.69
2022-11-17T14:30:00.592Z,98585.00
2022-11-17T14:32:28.730Z,98580.84
2022-11-17T14:34:57.971Z,98585.88
2022-11-17T14:37:27.773Z,98583.94
2022-11-17T14:39:55.805Z,98583.31
2022-11-17T14:42:24.057Z,98579.25
2022-11-17T14:44:52.503Z,98576.31
2022-11-17T14:47:22.367Z,98569.50
2022-11-17T14:49:50.821Z,98567.06
2022-11-17T14:52:19.333Z,98575.03
2022-11-17T14:54:47.562Z,98582.84
2022-11-17T14:57:16.097Z,98588.19
2022-11-17T14:59:44.521Z,98591.94
2022-11-17T15:02:12.724Z,98569.56
2022-11-17T15:04:50.521Z,98564.03
2022-11-17T15:07:19.675Z,98562.09
2022-11-17T15:09:47.903Z,98554.66
2022-11-17T15:12:16.454Z,98551.53
2022-11-17T15:14:47.336Z,98561.78
2022-11-17T15:17:15.773Z,98568.91
2022-11-17T15:19:44.046Z,98570.22
2022-11-17T15:22:12.598Z,98584.16
2022-11-17T15:24:41.028Z,98577.50
2022-11-17T15:27:09.475Z,98578.97
2022-11-17T15:29:37.911Z,98575.25
2022-11-17T15:32:07.652Z,98583.53
2022-11-17T15:34:35.743Z,98589.69
2022-11-17T15:37:04.226Z,98585.31
2022-11-17T15:39:32.514Z,98565.56
2022-11-17T15:42:00.649Z,98576.22
2022-11-17T15:44:29.423Z,98575.28
2022-11-17T15:46:58.089Z,98566.03
2022-11-17T15:49:26.640Z,98568.47
2022-11-17T15:51:55.441Z,98567.03
2022-11-17T15:54:23.735Z,98563.78
2022-11-17T15:56:52.168Z,98565.88
2022-11-17T15:59:20.848Z,98567.19
2022-11-17T16:01:49.240Z,98553.25
2022-11-17T16:04:17.672Z,98554.25
2022-11-17T16:06:46.964Z,98560.56
2022-11-17T16:09:15.877Z,98559.25
2022-11-17T16:11:44.724Z,98544.69
2022-11-17T16:14:14.952Z,98552.28
2022-11-17T16:16:46.030Z,98562.16
2022-11-17T16:19:14.992Z,98552.78
2022-11-17T16:21:44.515Z,98570.59
2022-11-17T16:24:12.803Z,98557.31
2022-11-17T16:26:41.313Z,98560.56
2022-11-17T16:29:09.483Z,98553.09
2022-11-17T16:31:39.202Z,98572.53
2022-11-17T16:34:12.955Z,98578.38
2022-11-17T16:36:42.475Z,98576.75
2022-11-17T16:39:15.225Z,98582.75
2022-11-17T16:41:50.252Z,98599.09
2022-11-17T16:44:18.608Z,98592.47
2022-11-17T16:46:48.743Z,98607.22
2022-11-17T16:49:18.992Z,98606.22
2022-11-17T16:51:49.591Z,98611.09
2022-11-17T16:54:18.725Z,98608.50
2022-11-17T16:56:47.030Z,98609.13
2022-11-17T16:59:16.264Z,98613.69
2022-11-17T17:01:45.047Z,98615.16
2022-11-17T17:04:23.689Z,98611.41
2022-11-17T17:06:52.471Z,98606.87
2022-11-17T17:09:26.539Z,98615.97
2022-11-17T17:11:57.149Z,98620.81
2022-11-17T17:14:25.859Z,98630.22
2022-11-17T17:16:54.389Z,98632.81
2022-11-17T17:19:24.580Z,98633.62
2022-11-17T17:21:53.853Z,98638.19
2022-11-17T17:24:22.512Z,98630.41
2022-11-17T17:26:51.276Z,98623.09
2022-11-17T17:29:19.988Z,98622.78
2022-11-17T17:31:49.121Z,98624.38
2022-11-17T17:34:18.692Z,98621.00
2022-11-17T17:36:47.276Z,98627.81
2022-11-17T17:39:16.506Z,98623.91
2022-11-17T17:41:46.286Z,98623.25
2022-11-17T17:44:19.194Z,98620.19
2022-11-17T17:46:49.096Z,98618.25
2022-11-17T17:49:19.557Z,98617.44
2022-11-17T17:51:49.027Z,98613.72
2022-11-17T17:54:20.094Z,98613.22
2022-11-17T17:56:48.905Z,98602.84
2022-11-17T17:59:17.967Z,98617.59
2022-11-17T18:01:47.858Z,98620.81
2022-11-17T18:04:17.283Z,98602.84
2022-11-17T18:06:47.865Z,98604.63
2022-11-17T18:09:20.659Z,98607.53
2022-11-17T18:11:50.718Z,98607.69
2022-11-17T18:14:24.737Z,98604.16
2022-11-17T18:16:54.086Z,98599.75
2022-11-17T18:19:25.774Z,98599.91
2022-11-17T18:21:57.358Z,98595.88
2022-11-17T18:24:25.999Z,98597.31
2022-11-17T18:26:54.328Z,98583.56
2022-11-17T18:29:23.338Z,98592.97
2022-11-17T18:31:51.986Z,98598.47
2022-11-17T18:34:26.246Z,98593.59
2022-11-17T18:36:55.789Z,98588.41
2022-11-17T18:39:24.935Z,98582.44
2022-11-17T18:41:53.484Z,98583.41
2022-11-17T18:44:22.104Z,98578.38
2022-11-17T18:46:50.212Z,98582.28
2022-11-17T18:49:18.863Z,98591.66
2022-11-17T18:51:49.860Z,98594.25
2022-11-17T18:54:18.328Z,98594.09
2022-11-17T18:56:46.903Z,98590.84
2022-11-17T18:59:18.465Z,98576.56
2022-11-17T19:01:47.719Z,98568.34
2022-11-17T19:04:17.050Z,98586.31
2022-11-17T19:06:45.717Z,98594.41
2022-11-17T19:09:14.708Z,98579.34
2022-11-17T19:11:45.668Z,98583.37
2022-11-17T19:14:14.380Z,98578.38
2022-11-17T19:16:45.305Z,98572.84
2022-11-17T19:19:15.247Z,98574.81
2022-11-17T19:21:44.295Z,98577.25
2022-11-17T19:24:13.957Z,98574.16
2022-11-17T19:26:42.900Z,98581.31
2022-11-17T19:29:16.585Z,98578.53
2022-11-17T19:31:46.712Z,98571.72
2022-11-17T19:34:18.226Z,98565.25
2022-11-17T19:36:47.425Z,98568.97
2022-11-17T19:39:17.053Z,98561.84
2022-11-17T19:41:47.537Z,98568.34
2022-11-17T19:44:16.382Z,98575.28
2022-11-17T19:46:44.674Z,98568.00
2022-11-17T19:49:13.234Z,98558.28
2022-11-17T19:51:42.227Z,98561.53
2022-11-17T19:54:13.375Z,98565.56
2022-11-17T19:56:42.458Z,98570.94
2022-11-17T19:59:15.771Z,98586.31
2022-11-17T20:01:45.832Z,98577.72
2022-11-17T20:04:17.679Z,98572.84
2022-11-17T20:06:45.795Z,98579.00
2022-11-17T20:09:15.241Z,98570.25
2022-11-17T20:11:44.245Z,98574.31
2022-11-17T20:14:14.550Z,98572.38
2022-11-17T20:16:43.023Z,98563.31
2022-11-17T20:19:14.153Z,98558.59
2022-11-17T20:21:42.640Z,98552.44
2022-11-17T20:24:11.371Z,98566.03
2022-11-17T20:26:42.376Z,98579.34
2022-11-17T20:29:10.820Z,98578.03
2022-11-17T20:31:39.041Z,98576.28
2022-11-17T20:34:07.724Z,98583.22
2022-11-17T20:36:35.938Z,98587.44
2022-11-17T20:39:06.491Z,98587.12
2022-11-17T20:41:35.830Z,98584.84
2022-11-17T20:44:04.252Z,98589.72
2022-11-17T20:46:32.666Z,98597.03
2022-11-17T20:49:01.639Z,98590.84
2022-11-17T20:51:30.051Z,98586.66
2022-11-17T20:53:58.337Z,98600.91
2022-11-17T20:56:26.949Z,98604.63
2022-11-17T20:58:55.629Z,98602.81
2022-11-17T21:01:24.432Z,98583.37
2022-11-17T21:03:53.536Z,98585.47
2022-11-17T21:06:24.633Z,98585.97
2022-11-17T21:08:53.406Z,98576.28
2022-11-17T21:11:43.155Z,98562.81
2022-11-17T21:14:13.380Z,98558.13
2022-11-17T21:16:47.493Z,98574.50
2022-11-17T21:19:17.253Z,98563.16
2022-11-17T21:21:45.934Z,98566.38
2022-11-17T21:24:14.506Z,98571.22
2022-11-17T21:26:43.267Z,98565.75
2022-11-17T21:29:11.390Z,98551.94
2022-11-17T21:31:39.625Z,98575.78
2022-11-17T21:34:14.643Z,98560.72
2022-11-17T21:36:43.415Z,98587.12
2022-11-17T21:39:18.004Z,98583.56
2022-11-17T21:41:46.833Z,98591.97
2022-11-17T21:44:15.348Z,98594.91
2022-11-17T21:46:43.405Z,98579.69
2022-11-17T21:49:11.639Z,98572.41
2022-11-17T21:51:40.088Z,98572.53
2022-11-17T21:54:10.076Z,98578.72
2022-11-17T21:56:38.686Z,98572.53
2022-11-17T21:59:11.784Z,98566.53
2022-11-17T22:01:40.699Z,98565.75
2022-11-17T22:04:11.264Z,98570.94
2022-11-17T22:06:39.378Z,98568.34
2022-11-17T22:09:08.432Z,98574.31
2022-11-17T22:11:38.178Z,98563.00
2022-11-17T22:14:20.352Z,98572.53
2022-11-17T22:16:52.004Z,98570.94
2022-11-17T22:19:21.917Z,98560.84
2022-11-17T22:21:54.288Z,98564.28
2022-11-17T22:24:22.671Z,98556.66
2022-11-17T22:26:51.757Z,98555.84
2022-11-17T22:29:22.077Z,98538.81
2022-11-17T22:31:51.151Z,98541.91
2022-11-17T22:34:19.553Z,98533.34
2022-11-17T22:36:47.610Z,98536.72
2022-11-17T22:39:17.010Z,98540.59
2022-11-17T22:41:45.265Z,98545.75
2022-11-17T22:44:15.176Z,98547.22
2022-11-17T22:46:44.032Z,98538.31
2022-11-17T22:49:12.578Z,98539.78
2022-11-17T22:51:59.694Z,98535.72
2022-11-17T22:54:28.121Z,98532.59
2022-11-17T22:56:57.666Z,98533.28
2022-11-17T22:59:30.133Z,98524.97
2022-11-17T23:02:01.765Z,98532.75
2022-11-17T23:04:29.887Z,98539.19
2022-11-17T23:06:58.388Z,98530.78
2022-11-17T23:09:26.628Z,98515.75
2022-11-17T23:11:54.716Z,98524.63
2022-11-17T23:14:23.413Z,98514.75
2022-11-17T23:16:51.786Z,98526.72
2022-11-17T23:19:20.483Z,98512.78
2022-11-17T23:21:49.230Z,98526.38
2022-11-17T23:24:17.378Z,98530.53
2022-11-17T23:26:45.518Z,98529.22
2022-11-17T23:29:14.332Z,98526.84
2022-11-17T23:31:42.767Z,98527.47
2022-11-17T23:34:11.125Z,98517.59
2022-11-17T23:36:39.659Z,98521.94
2022-11-17T23:39:08.722Z,98524.63
2022-11-17T23:41:37.059Z,98523.31
2022-11-17T23:44:05.637Z,98526.88
2022-11-17T23:46:33.688Z,98524.47
2022-11-17T23:49:01.871Z,98530.37
2022-11-17T23:51:30.421Z,98532.78
2022-11-17T23:54:01.150Z,98529.37
2022-11-17T23:56:33.876Z,98521.78
2022-11-17T23:59:02.110Z,98532.25
